Monte Toledo — CQRA — position and weather

sailwx.info

Track history (hours):
 
Tides and Currents Weather Stations Pressure Air Temp Water Temp Dewpoint Dewpoint Depression Visibility Wind Speed Wind Dir Waves Ship Positions

Monte Toledo

Last reported at 2016-Aug-08 06:31 UTC. Time now 2016-Aug-29 01:55 UTC.
Position N 26°43' W 014°51'.
Warning: this ship's position is 20 days out of date.

Length 274 m; draft 9 m.

Type: Tanker. MMSI: 255740000.

Date/timePositionNaut miles runAvg speedWind from/ knotsBaromVisibWave heightAir tempDewpointWater temp
2016-Aug-08 06:31N 26°43' W 014°51'1212.3
2016-Aug-08 05:30N 26°52' W 014°43'1212.6
2016-Aug-08 04:33N 27°02' W 014°34'1312.7
2016-Aug-08 03:33N 27°11' W 014°25'1312.6
2016-Aug-08 02:30N 27°22' W 014°15'1212.7
2016-Aug-08 01:33N 27°31' W 014°07'1313.0
2016-Aug-08 00:33N 27°41' W 013°57'1212.5
2016-Aug-07 23:33N 27°51' W 013°48'1312.5
2016-Aug-07 22:33N 28°00' W 013°39'1313.0
2016-Aug-07 21:32N 28°10' W 013°30'1312.8
2016-Aug-07 20:33N 28°21' W 013°22'1312.7
2016-Aug-07 19:33N 28°31' W 013°14'1312.8
2016-Aug-07 18:32N 28°43' W 013°06'1312.6
2016-Aug-07 17:32N 28°53' W 012°59'1312.8
2016-Aug-07 16:32N 29°04' W 012°51'1212.5
2016-Aug-07 15:33N 29°15' W 012°44'1312.5
2016-Aug-07 14:33N 29°25' W 012°36'6612.1
2016-Aug-07 09:07N 30°21' W 011°55'711.8
2016-Aug-07 08:30N 30°27' W 011°51'1112.0
2016-Aug-07 07:33N 30°37' W 011°44'1212.1
2016-Aug-07 06:33N 30°47' W 011°37'3812.7
2016-Aug-07 03:33N 31°19' W 011°13'1212.5
2016-Aug-07 02:33N 31°30' W 011°05'1313.0
2016-Aug-07 01:33N 31°41' W 010°57'1313.0
2016-Aug-07 00:33N 31°52' W 010°49'1413.0
2016-Aug-06 23:29N 32°03' W 010°40'1412.7
2016-Aug-06 22:22N 32°15' W 010°31'1212.6
2016-Aug-06 21:24N 32°26' W 010°23'1112.9
2016-Aug-06 20:33N 32°35' W 010°16'2712.7
2016-Aug-06 18:23N 32°58' W 009°58'1112.5
2016-Aug-06 17:32N 33°07' W 009°52'1212.4
2016-Aug-06 16:33N 33°17' W 009°44'1412.5
2016-Aug-06 15:27N 33°29' W 009°36'3612.5
2016-Aug-06 12:32N 33°60' W 009°12'1712.3
2016-Aug-06 11:11N 34°14' W 009°01'812.2
2016-Aug-06 10:31N 34°21' W 008°56'1312.3
2016-Aug-06 09:27N 34°32' W 008°47'13612.4
2016-Aug-05 22:26N 36°27' W 007°18'42 2.2
2016-Aug-05 03:25N 37°05' W 006°55'0 0.0
2016-Aug-05 02:13N 37°05' W 006°55'0 0.0
2016-Aug-05 01:25N 37°05' W 006°55'0 0.1
2016-Aug-05 00:31N 37°05' W 006°55'0 0.1
2016-Aug-04 23:31N 37°05' W 006°55'1 0.1
2016-Aug-04 06:17N 37°03' W 006°56'1 0.1
2016-Aug-04 01:28N 37°03' W 006°57'  
2016-Aug-01 13:20N 36°12' W 006°30'3110.2
2016-Aug-01 10:21N 35°58' W 005°57'1112.6
2016-Aug-01 09:28N 35°58' W 005°43'1111.9
2016-Aug-01 08:33N 35°59' W 005°30'1010.5
2016-Aug-01 07:33N 36°02' W 005°17'22412.4
2016-Jul-31 13:30N 36°31' W 000°42'4112.7
2016-Jul-31 10:15N 36°37' E 000°09'1013.4
2016-Jul-31 09:32N 36°39' E 000°20'1313.3
2016-Jul-31 08:32N 36°41' E 000°37'1413.3
2016-Jul-31 07:28N 36°44' E 000°54'1213.1
2016-Jul-31 06:32N 36°46' E 001°09'1312.6
2016-Jul-31 05:32N 36°47' E 001°25'1212.5
2016-Jul-31 04:33N 36°48' E 001°40'1312.5
2016-Jul-31 03:33N 36°50' E 001°55'1313.1
2016-Jul-31 02:33N 36°53' E 002°12'1613.5
2016-Jul-31 01:22N 36°55' E 002°31'3913.0
2016-Jul-30 22:22N 37°02' E 003°19'1113.2
2016-Jul-30 21:33N 37°04' E 003°32'1413.1
2016-Jul-30 20:31N 37°06' E 003°49'1513.2
2016-Jul-30 19:22N 37°08' E 004°08'1113.6
2016-Jul-30 18:33N 37°10' E 004°22'1413.6
2016-Jul-30 17:33N 37°12' E 004°39'1313.2
2016-Jul-30 16:33N 37°14' E 004°55'1313.1
2016-Jul-30 15:33N 37°16' E 005°11'1313.3
2016-Jul-30 14:33N 37°18' E 005°28'1713.4
2016-Jul-30 13:19N 37°20' E 005°49'1013.4
2016-Jul-30 12:33N 37°21' E 006°01'1313.4
2016-Jul-30 11:33N 37°23' E 006°18'1313.6
2016-Jul-30 10:33N 37°24' E 006°35'8413.8
2016-Jul-30 04:28N 37°34' E 008°20'3113.6
2016-Jul-30 02:12N 37°37' E 008°59'2213.2
2016-Jul-30 00:31N 37°38' E 009°27'1313.5
2016-Jul-29 23:31N 37°38' E 009°44'1313.5
2016-Jul-29 22:33N 37°38' E 010°01'1413.5
2016-Jul-29 21:33N 37°37' E 010°18'1313.2
2016-Jul-29 20:32N 37°34' E 010°34'1313.2
2016-Jul-29 19:32N 37°31' E 010°50'1313.3
2016-Jul-29 18:33N 37°28' E 011°06'1413.4
2016-Jul-29 17:33N 37°23' E 011°22'1313.2
2016-Jul-29 16:33N 37°16' E 011°37'1313.3
2016-Jul-29 15:33N 37°10' E 011°51'1313.4
2016-Jul-29 14:33N 37°03' E 012°06'1313.4
2016-Jul-29 13:34N 36°58' E 012°21'1313.3
2016-Jul-29 12:33N 36°54' E 012°37'1413.7
2016-Jul-29 11:33N 36°50' E 012°53'1313.3
2016-Jul-29 10:33N 36°46' E 013°09'1313.1
2016-Jul-29 09:33N 36°42' E 013°25'1313.3
2016-Jul-29 08:33N 36°37' E 013°40'1313.2
2016-Jul-29 07:33N 36°33' E 013°56'1313.0
2016-Jul-29 06:33N 36°29' E 014°12'  
Track history (hours):
 
Tides and Currents Weather Stations Pressure Air Temp Water Temp Dewpoint Dewpoint Depression Visibility Wind Speed Wind Dir Waves Ship Positions

Monte Toledo

Last reported at 2016-Aug-08 06:31 UTC. Time now 2016-Aug-29 01:55 UTC.
Position N 26°43' W 014°51'.
Warning: this ship's position is 20 days out of date.

Length 274 m; draft 9 m.

Type: Tanker. MMSI: 255740000.

Date/timePositionNaut miles runAvg speedWind from/ knotsBaromVisibWave heightAir tempDewpointWater temp
2016-Aug-08 06:31N 26°43' W 014°51'1212.3
2016-Aug-08 05:30N 26°52' W 014°43'1212.6
2016-Aug-08 04:33N 27°02' W 014°34'1312.7
2016-Aug-08 03:33N 27°11' W 014°25'1312.6
2016-Aug-08 02:30N 27°22' W 014°15'1212.7
2016-Aug-08 01:33N 27°31' W 014°07'1313.0
2016-Aug-08 00:33N 27°41' W 013°57'1212.5
2016-Aug-07 23:33N 27°51' W 013°48'1312.5
2016-Aug-07 22:33N 28°00' W 013°39'1313.0
2016-Aug-07 21:32N 28°10' W 013°30'1312.8
2016-Aug-07 20:33N 28°21' W 013°22'1312.7
2016-Aug-07 19:33N 28°31' W 013°14'1312.8
2016-Aug-07 18:32N 28°43' W 013°06'1312.6
2016-Aug-07 17:32N 28°53' W 012°59'1312.8
2016-Aug-07 16:32N 29°04' W 012°51'1212.5
2016-Aug-07 15:33N 29°15' W 012°44'1312.5
2016-Aug-07 14:33N 29°25' W 012°36'6612.1
2016-Aug-07 09:07N 30°21' W 011°55'711.8
2016-Aug-07 08:30N 30°27' W 011°51'1112.0
2016-Aug-07 07:33N 30°37' W 011°44'1212.1
2016-Aug-07 06:33N 30°47' W 011°37'3812.7
2016-Aug-07 03:33N 31°19' W 011°13'1212.5
2016-Aug-07 02:33N 31°30' W 011°05'1313.0
2016-Aug-07 01:33N 31°41' W 010°57'1313.0
2016-Aug-07 00:33N 31°52' W 010°49'1413.0
2016-Aug-06 23:29N 32°03' W 010°40'1412.7
2016-Aug-06 22:22N 32°15' W 010°31'1212.6
2016-Aug-06 21:24N 32°26' W 010°23'1112.9
2016-Aug-06 20:33N 32°35' W 010°16'2712.7
2016-Aug-06 18:23N 32°58' W 009°58'1112.5
2016-Aug-06 17:32N 33°07' W 009°52'1212.4
2016-Aug-06 16:33N 33°17' W 009°44'1412.5
2016-Aug-06 15:27N 33°29' W 009°36'3612.5
2016-Aug-06 12:32N 33°60' W 009°12'1712.3
2016-Aug-06 11:11N 34°14' W 009°01'812.2
2016-Aug-06 10:31N 34°21' W 008°56'1312.3
2016-Aug-06 09:27N 34°32' W 008°47'13612.4
2016-Aug-05 22:26N 36°27' W 007°18'42 2.2
2016-Aug-05 03:25N 37°05' W 006°55'0 0.0
2016-Aug-05 02:13N 37°05' W 006°55'0 0.0
2016-Aug-05 01:25N 37°05' W 006°55'0 0.1
2016-Aug-05 00:31N 37°05' W 006°55'0 0.1
2016-Aug-04 23:31N 37°05' W 006°55'1 0.1
2016-Aug-04 06:17N 37°03' W 006°56'1 0.1
2016-Aug-04 01:28N 37°03' W 006°57'  
2016-Aug-01 13:20N 36°12' W 006°30'3110.2
2016-Aug-01 10:21N 35°58' W 005°57'1112.6
2016-Aug-01 09:28N 35°58' W 005°43'1111.9
2016-Aug-01 08:33N 35°59' W 005°30'1010.5
2016-Aug-01 07:33N 36°02' W 005°17'22412.4
2016-Jul-31 13:30N 36°31' W 000°42'4112.7
2016-Jul-31 10:15N 36°37' E 000°09'1013.4
2016-Jul-31 09:32N 36°39' E 000°20'1313.3
2016-Jul-31 08:32N 36°41' E 000°37'1413.3
2016-Jul-31 07:28N 36°44' E 000°54'1213.1
2016-Jul-31 06:32N 36°46' E 001°09'1312.6
2016-Jul-31 05:32N 36°47' E 001°25'1212.5
2016-Jul-31 04:33N 36°48' E 001°40'1312.5
2016-Jul-31 03:33N 36°50' E 001°55'1313.1
2016-Jul-31 02:33N 36°53' E 002°12'1613.5
2016-Jul-31 01:22N 36°55' E 002°31'3913.0
2016-Jul-30 22:22N 37°02' E 003°19'1113.2
2016-Jul-30 21:33N 37°04' E 003°32'1413.1
2016-Jul-30 20:31N 37°06' E 003°49'1513.2
2016-Jul-30 19:22N 37°08' E 004°08'1113.6
2016-Jul-30 18:33N 37°10' E 004°22'1413.6
2016-Jul-30 17:33N 37°12' E 004°39'1313.2
2016-Jul-30 16:33N 37°14' E 004°55'1313.1
2016-Jul-30 15:33N 37°16' E 005°11'1313.3
2016-Jul-30 14:33N 37°18' E 005°28'1713.4
2016-Jul-30 13:19N 37°20' E 005°49'1013.4
2016-Jul-30 12:33N 37°21' E 006°01'1313.4
2016-Jul-30 11:33N 37°23' E 006°18'1313.6
2016-Jul-30 10:33N 37°24' E 006°35'8413.8
2016-Jul-30 04:28N 37°34' E 008°20'3113.6
2016-Jul-30 02:12N 37°37' E 008°59'2213.2
2016-Jul-30 00:31N 37°38' E 009°27'1313.5
2016-Jul-29 23:31N 37°38' E 009°44'1313.5
2016-Jul-29 22:33N 37°38' E 010°01'1413.5
2016-Jul-29 21:33N 37°37' E 010°18'1313.2
2016-Jul-29 20:32N 37°34' E 010°34'1313.2
2016-Jul-29 19:32N 37°31' E 010°50'1313.3
2016-Jul-29 18:33N 37°28' E 011°06'1413.4
2016-Jul-29 17:33N 37°23' E 011°22'1313.2
2016-Jul-29 16:33N 37°16' E 011°37'1313.3
2016-Jul-29 15:33N 37°10' E 011°51'1313.4
2016-Jul-29 14:33N 37°03' E 012°06'1313.4
2016-Jul-29 13:34N 36°58' E 012°21'1313.3
2016-Jul-29 12:33N 36°54' E 012°37'1413.7
2016-Jul-29 11:33N 36°50' E 012°53'1313.3
2016-Jul-29 10:33N 36°46' E 013°09'1313.1
2016-Jul-29 09:33N 36°42' E 013°25'1313.3
2016-Jul-29 08:33N 36°37' E 013°40'1313.2
2016-Jul-29 07:33N 36°33' E 013°56'1313.0
2016-Jul-29 06:33N 36°29' E 014°12'  

Dump ship's entire track history